Time;durP1;ratioP1;P1;durP2;ratioP2;P2;SDS_P1;SDS_P2;PMS_P1;PMS_P2;Temp;Humidity;BMP_temperature;BMP_pressure;BME280_temperature;BME280_humidity;BME280_pressure;Samples;Min_cycle;Max_cycle;Signal;HPM_P1;HPM_P2
2021/01/06 00:02:07;;;;;;;;;;;;;;;21.21;31.54;100002.28;5074427;28;20378;-59
2021/01/06 00:04:34;;;;;;;;;;;;;;;21.23;31.40;100002.81;5074746;28;19931;-60
2021/01/06 00:07:00;;;;;;;;;;;;;;;21.23;31.65;100000.06;5074483;28;19924;-60
2021/01/06 00:09:26;;;;;;;;;;;;;;;21.22;31.61;99992.84;5072876;28;19974;-60
2021/01/06 00:11:52;;;;;;;;;;;;;;;21.25;31.40;99992.28;5072689;28;19929;-59
2021/01/06 00:14:18;;;;;;;;;;;;;;;21.26;31.68;99993.94;5073918;28;20283;-59
2021/01/06 00:16:47;;;;;;;;;;;;;;;21.25;31.57;99995.03;5074068;28;19924;-60
2021/01/06 00:19:13;;;;;;;;;;;;;;;21.25;31.70;99992.28;5072266;28;19924;-60
2021/01/06 00:21:39;;;;;;;;;;;;;;;21.24;31.74;99996.16;5073783;28;19932;-59
2021/01/06 00:24:06;;;;;;;;;;;;;;;21.23;31.86;99996.44;5073358;28;19932;-59
2021/01/06 00:26:33;;;;;;;;;;;;;;;21.23;31.80;99993.69;5073999;28;19925;-60
2021/01/06 00:28:59;;;;;;;;;;;;;;;21.20;31.78;99989.50;5072996;28;19931;-60
2021/01/06 00:31:25;;;;;;;;;;;;;;;21.20;31.73;99989.50;5073598;28;19967;-60
2021/01/06 00:33:52;;;;;;;;;;;;;;;21.22;31.71;99981.75;5072852;28;20015;-59
2021/01/06 00:36:19;;;;;;;;;;;;;;;21.23;31.86;99966.78;5072975;28;20023;-60
2021/01/06 00:38:45;;;;;;;;;;;;;;;21.21;31.70;99974.56;5070939;28;20023;-59
2021/01/06 00:41:12;;;;;;;;;;;;;;;21.21;31.60;99971.78;5071572;28;19924;-60
2021/01/06 00:43:38;;;;;;;;;;;;;;;21.24;31.71;99975.94;5073187;28;20111;-59
2021/01/06 00:46:04;;;;;;;;;;;;;;;21.23;31.84;99977.88;5073391;28;20015;-59
2021/01/06 00:48:31;;;;;;;;;;;;;;;21.24;31.79;99970.38;5074354;28;19979;-60
2021/01/06 00:50:59;;;;;;;;;;;;;;;21.24;31.66;99976.75;5084586;28;19925;-60
2021/01/06 00:53:27;;;;;;;;;;;;;;;21.23;31.60;99966.78;5078712;28;19966;-59
2021/01/06 00:55:58;;;;;;;;;;;;;;;21.22;31.84;99967.91;5074935;28;19970;-60
2021/01/06 00:58:26;;;;;;;;;;;;;;;21.23;31.61;99965.97;5071719;28;20052;-60
2021/01/06 01:00:55;;;;;;;;;;;;;;;21.22;31.92;99973.44;5071402;28;19925;-59
2021/01/06 01:03:27;;;;;;;;;;;;;;;21.20;32.15;99961.78;5073013;28;19974;-60
2021/01/06 01:05:57;;;;;;;;;;;;;;;21.22;31.86;99967.91;5039547;28;19924;-59
2021/01/06 01:08:25;;;;;;;;;;;;;;;21.21;31.89;99963.47;5072663;28;19964;-59
2021/01/06 01:10:55;;;;;;;;;;;;;;;21.22;31.86;99962.34;5067554;22;19986;-66
2021/01/06 01:13:22;;;;;;;;;;;;;;;21.23;31.94;99964.00;5051210;28;19967;-66
2021/01/06 01:15:49;;;;;;;;;;;;;;;21.22;31.87;99962.34;5051933;28;19925;-66
2021/01/06 01:18:20;;;;;;;;;;;;;;;21.21;32.08;99957.94;5055030;28;19979;-66
2021/01/06 01:20:47;;;;;;;;;;;;;;;21.20;31.69;99956.25;5046833;28;19929;-66
2021/01/06 01:23:14;;;;;;;;;;;;;;;21.21;31.85;99957.94;5048377;28;19925;-66
2021/01/06 01:25:40;;;;;;;;;;;;;;;21.22;31.93;99965.13;5030330;28;19939;-67
2021/01/06 01:28:06;;;;;;;;;;;;;;;21.25;31.91;99958.19;5031681;28;19931;-67
2021/01/06 01:30:32;;;;;;;;;;;;;;;21.24;31.71;99953.75;5030805;28;20394;-66
2021/01/06 01:32:59;;;;;;;;;;;;;;;21.24;31.98;99957.34;5031256;28;19925;-66
2021/01/06 01:35:26;;;;;;;;;;;;;;;21.28;31.66;99960.38;5047156;28;20032;-67
2021/01/06 01:37:53;;;;;;;;;;;;;;;21.27;31.66;99955.94;5030384;28;19940;-68
2021/01/06 01:40:23;;;;;;;;;;;;;;;21.25;31.85;99950.69;5047037;28;19960;-66
2021/01/06 01:42:54;;;;;;;;;;;;;;;21.28;31.95;99952.88;5047219;28;19929;-67
2021/01/06 01:45:22;;;;;;;;;;;;;;;21.25;31.73;99950.69;5047150;28;19964;-67
2021/01/06 01:47:51;;;;;;;;;;;;;;;21.23;31.91;99955.69;5030477;28;19925;-67
2021/01/06 01:50:17;;;;;;;;;;;;;;;21.26;32.13;99949.56;5046959;28;19925;-66
2021/01/06 01:52:45;;;;;;;;;;;;;;;21.23;32.01;99950.16;5031630;28;19935;-67
2021/01/06 01:55:11;;;;;;;;;;;;;;;21.23;31.71;99947.38;5030167;28;19948;-67
2021/01/06 01:57:39;;;;;;;;;;;;;;;21.25;31.87;99947.91;5047011;28;19933;-66
2021/01/06 02:00:09;;;;;;;;;;;;;;;21.23;32.07;99952.09;5046521;28;19925;-66
2021/01/06 02:02:39;;;;;;;;;;;;;;;21.23;32.00;99944.63;5027148;28;20004;-67
2021/01/06 02:05:07;;;;;;;;;;;;;;;21.24;32.01;99949.03;5020647;28;20306;-66
2021/01/06 02:07:34;;;;;;;;;;;;;;;21.23;31.99;99944.63;5025253;28;19925;-66
2021/01/06 02:10:00;;;;;;;;;;;;;;;21.24;31.81;99946.25;5025930;28;20024;-67
2021/01/06 02:12:30;;;;;;;;;;;;;;;21.23;31.79;99950.16;5020583;28;19926;-66
2021/01/06 02:15:06;;;;;;;;;;;;;;;21.22;31.77;99945.72;5011467;28;20025;-67
2021/01/06 02:17:32;;;;;;;;;;;;;;;21.22;31.81;99947.69;5010190;28;19933;-66
2021/01/06 02:19:59;;;;;;;;;;;;;;;21.22;31.93;99948.50;5011286;28;19925;-67
2021/01/06 02:22:26;;;;;;;;;;;;;;;21.20;32.13;99942.41;5010718;28;19926;-67
2021/01/06 02:24:52;;;;;;;;;;;;;;;21.23;32.02;99941.00;5023020;28;20049;-67
2021/01/06 02:27:19;;;;;;;;;;;;;;;21.24;32.05;99940.72;5029893;28;19925;-67
2021/01/06 02:29:45;;;;;;;;;;;;;;;21.24;31.96;99932.41;5046075;28;19931;-67
2021/01/06 02:32:12;;;;;;;;;;;;;;;21.24;32.04;99946.25;5031007;28;19925;-67
2021/01/06 02:34:38;;;;;;;;;;;;;;;21.24;32.06;99946.25;5046443;28;19932;-67
2021/01/06 02:37:04;;;;;;;;;;;;;;;21.25;31.79;99941.56;5030887;28;19931;-67
2021/01/06 02:39:30;;;;;;;;;;;;;;;21.25;31.92;99942.38;5031114;28;19936;-67
2021/01/06 02:41:56;;;;;;;;;;;;;;;21.24;32.04;99937.94;5046010;28;19925;-67
2021/01/06 02:44:23;;;;;;;;;;;;;;;21.25;31.87;99934.06;5046061;28;19925;-66
2021/01/06 02:46:49;;;;;;;;;;;;;;;21.26;31.98;99937.66;5030476;28;19925;-66
2021/01/06 02:49:15;;;;;;;;;;;;;;;21.27;32.17;99933.78;5045826;28;19932;-66
2021/01/06 02:51:49;;;;;;;;;;;;;;;21.26;32.01;99932.13;5050729;28;19925;-66
2021/01/06 02:54:17;;;;;;;;;;;;;;;21.27;32.05;99934.59;5044222;28;19925;-66
2021/01/06 02:56:44;;;;;;;;;;;;;;;21.28;31.63;99927.94;5044130;28;20355;-66
2021/01/06 02:59:10;;;;;;;;;;;;;;;21.26;31.68;99927.41;5045800;28;19929;-65
2021/01/06 03:01:37;;;;;;;;;;;;;;;21.23;31.72;99916.91;5045577;28;19925;-67
2021/01/06 03:04:03;;;;;;;;;;;;;;;21.29;31.83;99918.50;5035162;28;19925;-67
2021/01/06 03:06:44;;;;;;;;;;;;;;;21.34;31.82;99921.22;5045973;28;19971;-66
2021/01/06 03:09:29;;;;;;;;;;;;;;;21.34;31.89;99912.91;5045617;28;19925;-67
2021/01/06 03:11:55;;;;;;;;;;;;;;;21.34;32.02;99921.22;5030417;28;19925;-67
2021/01/06 03:14:22;;;;;;;;;;;;;;;21.35;31.99;99920.09;5012815;28;19935;-66
2021/01/06 03:16:48;;;;;;;;;;;;;;;21.34;31.76;99918.44;5035055;28;19925;-67
2021/01/06 03:19:15;;;;;;;;;;;;;;;21.36;32.14;99907.88;5047630;28;19948;-65
2021/01/06 03:21:42;;;;;;;;;;;;;;;21.39;31.60;99921.16;5047929;28;20327;-66
2021/01/06 03:24:08;;;;;;;;;;;;;;;21.55;31.36;99912.66;5031903;28;20004;-66
2021/01/06 03:26:34;;;;;;;;;;;;;;;21.72;30.68;99913.81;5032367;28;20375;-65
2021/01/06 03:29:00;;;;;;;;;;;;;;;21.83;30.67;99906.16;5038432;28;19926;-65
2021/01/06 03:31:41;;;;;;;;;;;;;;;21.86;30.56;99893.66;5028846;28;19932;-66
2021/01/06 03:34:10;;;;;;;;;;;;;;;21.91;30.18;99905.50;5028868;28;20388;-65
2021/01/06 03:36:38;;;;;;;;;;;;;;;21.94;30.01;99902.13;5029562;28;19929;-65
2021/01/06 03:39:05;;;;;;;;;;;;;;;21.95;30.35;99895.47;5028846;28;19929;-67
2021/01/06 03:41:32;;;;;;;;;;;;;;;22.01;30.19;99894.31;5029411;28;19925;-66
2021/01/06 03:43:59;;;;;;;;;;;;;;;22.02;30.20;99890.41;5029183;28;20031;-65
2021/01/06 03:46:40;;;;;;;;;;;;;;;22.03;30.05;99880.97;5050392;28;19939;-67
2021/01/06 03:49:36;;;;;;;;;;;;;;;22.07;29.69;99883.97;5048069;28;20019;-66
2021/01/06 03:52:07;;;;;;;;;;;;;;;22.06;29.98;99880.38;5031001;28;19925;-66
2021/01/06 03:54:38;;;;;;;;;;;;;;;22.05;29.82;99873.16;5046926;28;19953;-66
2021/01/06 03:57:04;;;;;;;;;;;;;;;22.13;29.83;99879.16;5046931;28;19925;-66
2021/01/06 03:59:31;;;;;;;;;;;;;;;22.13;29.55;99873.63;5045957;28;19925;-66
2021/01/06 04:02:12;;;;;;;;;;;;;;;22.14;29.37;99862.22;5035804;28;19969;-66
2021/01/06 04:04:40;;;;;;;;;;;;;;;22.13;29.35;99859.75;5029962;28;19932;-65
2021/01/06 04:07:27;;;;;;;;;;;;;;;22.06;29.34;99863.72;5046415;28;20422;-66
2021/01/06 04:09:55;;;;;;;;;;;;;;;22.06;29.38;99868.44;5046661;28;19925;-66
2021/01/06 04:12:22;;;;;;;;;;;;;;;22.05;29.31;99852.91;5014059;28;20001;-67
2021/01/06 04:14:48;;;;;;;;;;;;;;;22.03;29.09;99860.72;5046300;28;20023;-66
2021/01/06 04:17:24;;;;;;;;;;;;;;;21.94;29.55;99852.19;5046592;28;20387;-65
2021/01/06 04:19:51;;;;;;;;;;;;;;;21.74;29.63;99860.81;5046551;28;19976;-66
2021/01/06 04:22:23;;;;;;;;;;;;;;;21.62;30.01;99849.31;5047300;28;19963;-66
2021/01/06 04:24:49;;;;;;;;;;;;;;;21.78;29.81;99850.78;5043797;28;19929;-66
2021/01/06 04:27:17;;;;;;;;;;;;;;;21.91;29.70;99847.25;5032459;28;20399;-66
2021/01/06 04:29:43;;;;;;;;;;;;;;;21.98;29.53;99839.38;5040120;28;19991;-66
2021/01/06 04:32:09;;;;;;;;;;;;;;;22.03;29.13;99841.28;5039256;28;20406;-67
2021/01/06 04:34:35;;;;;;;;;;;;;;;22.09;29.21;99844.81;5037400;28;19968;-65
2021/01/06 04:37:01;;;;;;;;;;;;;;;22.06;29.18;99846.22;5042072;28;20153;-66
2021/01/06 04:39:28;;;;;;;;;;;;;;;22.13;29.05;99845.84;5009833;28;19935;-66
2021/01/06 04:41:59;;;;;;;;;;;;;;;22.19;29.05;99844.63;5038437;28;20092;-66
2021/01/06 04:44:41;;;;;;;;;;;;;;;22.11;28.87;99834.22;5033636;28;19947;-65
2021/01/06 04:47:07;;;;;;;;;;;;;;;22.10;28.80;99833.41;5048907;28;19946;-66
2021/01/06 04:49:37;;;;;;;;;;;;;;;22.09;28.80;99834.53;5061665;28;20410;-66
2021/01/06 04:52:03;;;;;;;;;;;;;;;22.00;29.18;99837.13;5036305;28;19931;-65
2021/01/06 04:54:41;;;;;;;;;;;;;;;22.00;28.87;99842.66;5066019;28;19968;-66
2021/01/06 04:57:11;;;;;;;;;;;;;;;21.98;29.08;99833.81;5022295;28;19925;-66
2021/01/06 04:59:42;;;;;;;;;;;;;;;21.95;28.84;99833.59;5017256;28;20139;-66
2021/01/06 05:02:14;;;;;;;;;;;;;;;21.93;29.15;99836.66;5033613;28;19952;-66
2021/01/06 05:04:44;;;;;;;;;;;;;;;21.94;28.96;99835.53;5051920;28;19936;-65
2021/01/06 05:07:29;;;;;;;;;;;;;;;21.91;29.16;99833.38;5034080;28;19972;-65
2021/01/06 05:10:00;;;;;;;;;;;;;;;21.91;29.12;99836.13;5051748;28;19928;-66
2021/01/06 05:12:30;;;;;;;;;;;;;;;21.90;28.88;99828.13;5045258;28;19948;-66
2021/01/06 05:15:10;;;;;;;;;;;;;;;21.86;29.26;99825.13;5038149;28;19924;-65
2021/01/06 05:17:37;;;;;;;;;;;;;;;21.95;29.08;99823.31;5035932;28;19924;-65
2021/01/06 05:20:04;;;;;;;;;;;;;;;21.94;29.09;99816.13;5035220;28;20023;-65
2021/01/06 05:22:30;;;;;;;;;;;;;;;21.92;28.95;99823.09;5019101;28;19925;-64
2021/01/06 05:24:56;;;;;;;;;;;;;;;21.94;28.95;99823.63;5053132;28;20024;-65
2021/01/06 05:27:35;;;;;;;;;;;;;;;21.93;29.05;99817.25;5035274;28;19925;-65
2021/01/06 05:30:04;;;;;;;;;;;;;;;21.95;28.62;99816.94;5018437;28;20283;-66
2021/01/06 05:32:32;;;;;;;;;;;;;;;21.96;28.70;99818.59;5053002;28;19929;-66
2021/01/06 05:34:59;;;;;;;;;;;;;;;21.93;28.74;99814.47;5035063;28;19924;-66
2021/01/06 05:37:25;;;;;;;;;;;;;;;21.91;28.86;99811.16;5052956;28;20337;-66
2021/01/06 05:39:52;;;;;;;;;;;;;;;21.94;29.06;99812.53;5054007;28;19924;-66
2021/01/06 05:42:23;;;;;;;;;;;;;;;21.92;29.06;99818.38;5020851;28;19947;-66
2021/01/06 05:44:50;;;;;;;;;;;;;;;21.94;28.86;99815.28;5020059;28;19925;-65
2021/01/06 05:47:21;;;;;;;;;;;;;;;21.97;28.51;99815.53;5034902;28;19931;-65
2021/01/06 05:49:47;;;;;;;;;;;;;;;21.95;28.55;99806.66;5018226;28;19932;-65
2021/01/06 05:52:14;;;;;;;;;;;;;;;21.89;28.82;99813.41;5034787;28;19925;-65
2021/01/06 05:54:48;;;;;;;;;;;;;;;21.95;28.87;99812.22;5034708;28;20432;-65
2021/01/06 05:57:27;;;;;;;;;;;;;;;21.98;28.51;99808.84;5034938;28;20246;-66
2021/01/06 06:00:06;;;;;;;;;;;;;;;21.99;28.70;99806.91;5052561;28;20309;-65
2021/01/06 06:02:37;;;;;;;;;;;;;;;22.01;28.66;99802.72;5052300;28;19986;-65
2021/01/06 06:05:06;;;;;;;;;;;;;;;22.02;28.50;99803.56;5018310;28;19972;-65
2021/01/06 06:07:36;;;;;;;;;;;;;;;21.97;28.66;99796.09;5051823;28;19931;-65
2021/01/06 06:10:05;;;;;;;;;;;;;;;21.97;28.63;99804.41;5034236;28;19971;-65
2021/01/06 06:12:40;;;;;;;;;;;;;;;21.99;28.52;99793.84;5034420;28;19929;-65
2021/01/06 06:15:22;;;;;;;;;;;;;;;21.94;28.78;99799.47;5034378;28;19925;-65
2021/01/06 06:18:07;;;;;;;;;;;;;;;21.98;28.54;99799.69;5034319;28;19974;-65
2021/01/06 06:20:36;;;;;;;;;;;;;;;21.95;28.86;99800.28;5034517;28;19924;-65
2021/01/06 06:23:25;;;;;;;;;;;;;;;21.95;28.71;99800.28;5051928;28;20023;-66
2021/01/06 06:25:55;;;;;;;;;;;;;;;21.96;28.75;99807.50;5037019;28;19968;-65
2021/01/06 06:28:23;;;;;;;;;;;;;;;21.94;28.58;99793.09;5034023;28;19925;-66
2021/01/06 06:30:52;;;;;;;;;;;;;;;21.96;28.37;99797.22;5034195;28;19925;-66
2021/01/06 06:33:20;;;;;;;;;;;;;;;22.01;28.39;99799.94;5034018;28;20447;-65
2021/01/06 06:35:48;;;;;;;;;;;;;;;22.04;28.42;99810.44;5033977;28;19931;-65
2021/01/06 06:38:16;;;;;;;;;;;;;;;22.02;28.45;99801.59;5033734;28;19936;-65
2021/01/06 06:41:04;;;;;;;;;;;;;;;22.05;28.25;99800.19;5051325;28;20302;-65
2021/01/06 06:43:39;;;;;;;;;;;;;;;22.02;28.49;99801.59;5034121;28;19929;-65
2021/01/06 06:46:11;;;;;;;;;;;;;;;22.04;28.71;99807.69;5033853;28;19940;-66
2021/01/06 06:48:43;;;;;;;;;;;;;;;22.04;28.54;99802.13;5017620;28;19928;-65
2021/01/06 06:51:15;;;;;;;;;;;;;;;22.00;28.28;99808.53;5034349;28;20377;-66
2021/01/06 06:53:50;;;;;;;;;;;;;;;21.99;28.53;99802.16;5033270;28;19929;-65
2021/01/06 06:56:35;;;;;;;;;;;;;;;22.00;28.19;99812.16;5051392;28;19932;-66
2021/01/06 06:59:04;;;;;;;;;;;;;;;21.95;28.32;99808.63;5033258;28;20450;-66
2021/01/06 07:01:35;;;;;;;;;;;;;;;21.94;28.34;99809.75;5033880;28;20412;-66
2021/01/06 07:04:21;;;;;;;;;;;;;;;21.97;28.46;99807.19;5033325;28;20019;-66
2021/01/06 07:06:52;;;;;;;;;;;;;;;21.92;28.25;99818.38;5033583;28;19925;-66
2021/01/06 07:09:18;;;;;;;;;;;;;;;21.91;28.34;99827.81;5032789;28;20402;-65
2021/01/06 07:11:45;;;;;;;;;;;;;;;21.90;28.27;99828.13;5032521;23;20021;-59
2021/01/06 07:14:18;;;;;;;;;;;;;;;21.84;28.48;99832.91;5027188;28;19926;-61
2021/01/06 07:16:50;;;;;;;;;;;;;;;21.85;28.62;99828.19;5026807;28;20418;-59
2021/01/06 07:19:24;;;;;;;;;;;;;;;21.82;28.62;99829.63;5026589;28;19945;-60
2021/01/06 07:21:54;;;;;;;;;;;;;;;21.80;28.24;99828.28;5005446;28;19936;-59
2021/01/06 07:24:21;;;;;;;;;;;;;;;21.81;28.43;99839.09;5003901;28;19926;-59
2021/01/06 07:26:57;;;;;;;;;;;;;;;21.85;28.56;99834.56;4993697;28;20356;-59
2021/01/06 07:29:30;;;;;;;;;;;;;;;21.91;28.20;99833.38;4994274;28;19933;-59
2021/01/06 07:32:05;;;;;;;;;;;;;;;21.97;28.33;99836.91;5010954;28;20007;-61
2021/01/06 07:34:48;;;;;;;;;;;;;;;21.93;28.22;99836.66;5010624;28;20016;-60
2021/01/06 07:37:21;;;;;;;;;;;;;;;21.99;28.22;99838.25;4980851;28;20272;-60
2021/01/06 07:39:47;;;;;;;;;;;;;;;22.06;27.97;99835.97;5011500;28;20387;-59
2021/01/06 07:42:30;;;;;;;;;;;;;;;22.01;27.94;99843.53;4983279;28;20020;-60
2021/01/06 07:45:01;;;;;;;;;;;;;;;22.00;27.83;99844.63;5010605;28;20040;-60
2021/01/06 07:47:27;;;;;;;;;;;;;;;22.01;28.21;99847.13;5010341;28;19925;-60
2021/01/06 07:49:58;;;;;;;;;;;;;;;21.95;28.33;99839.97;5010115;28;20426;-59
2021/01/06 07:52:43;;;;;;;;;;;;;;;21.98;27.89;99844.91;5010603;28;19930;-59
2021/01/06 07:55:17;;;;;;;;;;;;;;;21.92;27.92;99845.28;5009885;28;19925;-59
2021/01/06 07:57:48;;;;;;;;;;;;;;;21.86;28.09;99841.75;5011878;28;19929;-59
2021/01/06 08:00:16;;;;;;;;;;;;;;;21.91;28.32;99846.41;5010036;28;19925;-59
2021/01/06 08:02:55;;;;;;;;;;;;;;;21.89;28.29;99843.94;5009932;28;19948;-59
2021/01/06 08:05:26;;;;;;;;;;;;;;;21.89;28.28;99841.16;4995931;28;19926;-59
2021/01/06 08:08:24;;;;;;;;;;;;;;;21.95;28.05;99844.69;5009411;28;20200;-59
2021/01/06 08:10:51;;;;;;;;;;;;;;;21.92;28.14;99846.13;5010179;28;19960;-59
2021/01/06 08:13:17;;;;;;;;;;;;;;;21.92;27.96;99851.66;5022005;28;19956;-61
2021/01/06 08:15:43;;;;;;;;;;;;;;;21.93;27.82;99847.78;5019715;28;20015;-60
2021/01/06 08:18:22;;;;;;;;;;;;;;;21.91;28.08;99844.47;5010056;28;19995;-59
2021/01/06 08:20:51;;;;;;;;;;;;;;;21.93;28.02;99845.00;5010034;28;19925;-58
2021/01/06 08:23:28;;;;;;;;;;;;;;;21.94;27.88;99843.88;5011179;28;19929;-59
2021/01/06 08:26:13;;;;;;;;;;;;;;;21.89;28.01;99849.50;4990432;28;20020;-60
2021/01/06 08:28:39;;;;;;;;;;;;;;;21.93;28.19;99852.50;5009696;28;19926;-60
2021/01/06 08:31:10;;;;;;;;;;;;;;;21.92;27.84;99851.66;5010845;28;20370;-60
2021/01/06 08:34:08;;;;;;;;;;;;;;;21.93;28.17;99847.78;5014689;28;20012;-60
2021/01/06 08:36:35;;;;;;;;;;;;;;;22.04;27.84;99854.84;5013306;28;20019;-60
2021/01/06 08:39:05;;;;;;;;;;;;;;;22.11;27.80;99851.72;5014792;28;20330;-59
2021/01/06 08:41:32;;;;;;;;;;;;;;;22.09;27.47;99850.34;5014974;28;19926;-61
2021/01/06 08:44:00;;;;;;;;;;;;;;;22.12;27.80;99850.59;5014770;28;20479;-59
2021/01/06 08:46:27;;;;;;;;;;;;;;;22.12;27.75;99847.81;5013697;28;20402;-59
2021/01/06 08:49:06;;;;;;;;;;;;;;;22.08;27.72;99855.09;5014483;28;20390;-60
2021/01/06 08:51:33;;;;;;;;;;;;;;;22.01;27.94;99849.91;5013922;28;19925;-59
2021/01/06 08:54:14;;;;;;;;;;;;;;;21.96;27.93;99855.50;5013324;28;19961;-59
2021/01/06 08:56:41;;;;;;;;;;;;;;;22.00;27.76;99859.31;5033150;28;19925;-60
2021/01/06 08:59:21;;;;;;;;;;;;;;;22.07;27.48;99853.44;5024676;28;19975;-59
2021/01/06 09:01:47;;;;;;;;;;;;;;;22.09;27.45;99853.13;4997800;28;20311;-60
2021/01/06 09:04:18;;;;;;;;;;;;;;;22.15;27.47;99860.25;5012983;28;20469;-58
2021/01/06 09:06:46;;;;;;;;;;;;;;;22.19;27.68;99855.72;5013121;28;19925;-60
2021/01/06 09:09:31;;;;;;;;;;;;;;;22.18;27.70;99854.91;5012634;28;20352;-60
2021/01/06 09:12:00;;;;;;;;;;;;;;;22.21;27.41;99853.47;5014140;28;19925;-60
2021/01/06 09:14:31;;;;;;;;;;;;;;;22.28;27.48;99848.38;5014108;28;20016;-59
2021/01/06 09:17:03;;;;;;;;;;;;;;;22.28;27.85;99842.81;5014141;28;20305;-59
2021/01/06 09:19:36;;;;;;;;;;;;;;;22.30;27.38;99846.94;5005102;28;19926;-60
2021/01/06 09:22:03;;;;;;;;;;;;;;;22.36;27.69;99842.13;4996019;28;19980;-60
2021/01/06 09:24:33;;;;;;;;;;;;;;;22.36;27.67;99839.34;4997547;28;19932;-60
2021/01/06 09:27:03;;;;;;;;;;;;;;;22.36;27.33;99839.34;4978382;28;19926;-60
2021/01/06 09:29:35;;;;;;;;;;;;;;;22.41;27.21;99842.06;4993353;28;19941;-60
2021/01/06 09:32:02;;;;;;;;;;;;;;;22.38;27.21;99845.44;5013055;28;19957;-60
2021/01/06 09:34:32;;;;;;;;;;;;;;;22.40;27.31;99845.97;5014650;28;19956;-60
2021/01/06 09:36:58;;;;;;;;;;;;;;;22.43;27.14;99845.34;4996601;28;20311;-59
2021/01/06 09:39:25;;;;;;;;;;;;;;;22.46;27.26;99838.38;5012475;28;20012;-60
2021/01/06 09:41:52;;;;;;;;;;;;;;;22.47;27.24;99835.28;5012528;28;20474;-60
2021/01/06 09:44:18;;;;;;;;;;;;;;;22.47;27.28;99838.06;5005443;28;20458;-59
2021/01/06 09:46:49;;;;;;;;;;;;;;;22.44;27.41;99835.91;4992650;28;20380;-59
2021/01/06 09:49:36;;;;;;;;;;;;;;;22.48;27.51;99845.28;4993895;28;19984;-61
2021/01/06 09:52:05;;;;;;;;;;;;;;;22.49;27.35;99844.16;5010572;28;19961;-61
2021/01/06 09:54:31;;;;;;;;;;;;;;;22.48;27.32;99838.91;5013235;28;19925;-60
2021/01/06 09:56:57;;;;;;;;;;;;;;;22.49;27.46;99846.91;5029791;28;19933;-61
2021/01/06 09:59:24;;;;;;;;;;;;;;;22.50;27.05;99843.03;4998530;28;19925;-61
2021/01/06 10:02:14;;;;;;;;;;;;;;;22.47;27.26;99845.56;5015840;28;19925;-62
2021/01/06 10:04:41;;;;;;;;;;;;;;;22.48;27.39;99842.50;5017382;28;19948;-61
2021/01/06 10:07:26;;;;;;;;;;;;;;;22.48;27.17;99842.50;5015750;28;19932;-59
2021/01/06 10:09:55;;;;;;;;;;;;;;;22.47;27.23;99840.03;5015381;28;19992;-59
2021/01/06 10:12:21;;;;;;;;;;;;;;;22.51;27.35;99836.34;5017386;28;20405;-62
2021/01/06 10:14:53;;;;;;;;;;;;;;;22.54;27.29;99827.38;5020787;28;19925;-61
2021/01/06 10:17:27;;;;;;;;;;;;;;;22.58;27.31;99822.84;5019006;28;19926;-60
2021/01/06 10:19:53;;;;;;;;;;;;;;;22.56;27.08;99819.56;5015824;28;19933;-60
2021/01/06 10:22:22;;;;;;;;;;;;;;;22.59;27.27;99813.38;5004444;28;20298;-60
2021/01/06 10:25:09;;;;;;;;;;;;;;;22.62;27.10;99812.78;4994428;28;20392;-59
2021/01/06 10:27:52;;;;;;;;;;;;;;;22.62;27.03;99810.00;5015895;28;19965;-61
2021/01/06 10:30:19;;;;;;;;;;;;;;;22.66;27.22;99811.03;4998535;28;19925;-60
2021/01/06 10:32:50;;;;;;;;;;;;;;;22.64;27.29;99807.75;5011733;28;20510;-59
2021/01/06 10:35:27;;;;;;;;;;;;;;;22.63;27.01;99820.00;5013633;28;19932;-59
2021/01/06 10:37:54;;;;;;;;;;;;;;;22.61;26.95;99813.91;5012112;28;19974;-60
2021/01/06 10:40:28;;;;;;;;;;;;;;;22.62;27.28;99810.00;5013645;28;19925;-59
2021/01/06 10:42:54;;;;;;;;;;;;;;;22.68;27.24;99808.78;5012210;28;20403;-59
2021/01/06 10:45:27;;;;;;;;;;;;;;;22.69;26.69;99804.06;5012118;28;19995;-59
2021/01/06 10:47:53;;;;;;;;;;;;;;;22.68;27.07;99803.22;5013559;28;19971;-60
2021/01/06 10:50:22;;;;;;;;;;;;;;;22.72;26.80;99807.03;5027983;28;19925;-60
2021/01/06 10:53:04;;;;;;;;;;;;;;;22.71;26.85;99804.56;5011520;28;20289;-60
2021/01/06 10:55:37;;;;;;;;;;;;;;;22.70;26.85;99803.75;5009577;28;19952;-60
2021/01/06 10:58:17;;;;;;;;;;;;;;;22.77;27.17;99800.56;5011525;28;20033;-60
2021/01/06 11:00:56;;;;;;;;;;;;;;;22.82;26.75;99799.69;5010998;28;19926;-60
2021/01/06 11:03:34;;;;;;;;;;;;;;;22.86;27.04;99800.72;5012694;28;19926;-60
2021/01/06 11:06:05;;;;;;;;;;;;;;;22.91;26.77;99792.25;5011264;28;20404;-60
2021/01/06 11:08:36;;;;;;;;;;;;;;;22.95;26.44;99793.28;5011168;28;20017;-60
2021/01/06 11:11:04;;;;;;;;;;;;;;;22.95;26.49;99784.97;5011846;28;19929;-60
2021/01/06 11:13:51;;;;;;;;;;;;;;;22.96;26.55;99789.38;5001464;28;19929;-60
2021/01/06 11:16:20;;;;;;;;;;;;;;;22.92;26.57;99780.00;5010538;28;20028;-60
2021/01/06 11:18:47;;;;;;;;;;;;;;;22.93;26.59;99778.88;4995042;28;19926;-60
2021/01/06 11:21:20;;;;;;;;;;;;;;;22.97;26.58;99777.97;4998102;28;19932;-60
2021/01/06 11:23:46;;;;;;;;;;;;;;;22.92;26.59;99771.69;5007379;28;19925;-60
2021/01/06 11:26:30;;;;;;;;;;;;;;;22.86;26.99;99770.97;5007905;28;19926;-60
2021/01/06 11:29:14;;;;;;;;;;;;;;;22.86;27.09;99764.59;5013372;28;20482;-60
2021/01/06 11:31:41;;;;;;;;;;;;;;;22.84;27.07;99764.09;5010666;28;20311;-59
2021/01/06 11:34:09;;;;;;;;;;;;;;;22.82;26.82;99752.44;5000995;28;19984;-60
2021/01/06 11:36:43;;;;;;;;;;;;;;;22.84;27.16;99747.41;5011994;28;19925;-60
2021/01/06 11:39:15;;;;;;;;;;;;;;;22.82;26.95;99752.44;4995835;28;19971;-59
2021/01/06 11:41:41;;;;;;;;;;;;;;;22.77;26.90;99745.00;5012635;28;20302;-61
2021/01/06 11:44:27;;;;;;;;;;;;;;;22.77;26.70;99745.00;5013447;28;20020;-62
2021/01/06 11:47:02;;;;;;;;;;;;;;;22.71;26.84;99738.72;5011400;28;19936;-61
2021/01/06 11:49:38;;;;;;;;;;;;;;;22.72;27.14;99739.53;5011089;28;19930;-60
2021/01/06 11:52:20;;;;;;;;;;;;;;;22.72;27.07;99737.59;5011358;28;19929;-60
2021/01/06 11:54:59;;;;;;;;;;;;;;;22.71;27.26;99741.50;5008059;28;20388;-60
2021/01/06 11:57:45;;;;;;;;;;;;;;;22.77;27.29;99735.84;5012595;28;20295;-61
2021/01/06 12:00:24;;;;;;;;;;;;;;;22.82;27.02;99735.78;5011288;28;19925;-60
2021/01/06 12:02:56;;;;;;;;;;;;;;;22.82;27.14;99730.22;5011688;28;19925;-60
2021/01/06 12:05:27;;;;;;;;;;;;;;;22.86;26.67;99725.69;4995992;28;19936;-60
2021/01/06 12:08:03;;;;;;;;;;;;;;;22.85;27.02;99724.03;5013754;28;20053;-60
2021/01/06 12:11:02;;;;;;;;;;;;;;;22.82;26.87;99725.50;5031947;28;19975;-60
2021/01/06 12:13:47;;;;;;;;;;;;;;;22.83;27.06;99731.88;5016490;28;19926;-60
2021/01/06 12:16:15;;;;;;;;;;;;;;;22.76;26.69;99726.69;5016650;28;19933;-60
2021/01/06 12:18:56;;;;;;;;;;;;;;;22.68;26.99;99725.44;4998172;28;20272;-62
2021/01/06 12:21:35;;;;;;;;;;;;;;;22.67;26.81;99729.34;5016589;28;19930;-60
2021/01/06 12:24:20;;;;;;;;;;;;;;;22.63;27.15;99727.50;5011381;28;19926;-61
2021/01/06 12:27:05;;;;;;;;;;;;;;;22.65;27.14;99725.22;5013655;28;19925;-60
2021/01/06 12:29:33;;;;;;;;;;;;;;;22.69;27.25;99724.31;5015208;28;19926;-60
2021/01/06 12:32:00;;;;;;;;;;;;;;;22.68;27.06;99719.88;5015393;28;19925;-60
2021/01/06 12:34:32;;;;;;;;;;;;;;;22.69;27.26;99723.50;5016393;28;20439;-61
2021/01/06 12:37:10;;;;;;;;;;;;;;;22.68;27.09;99719.88;5010975;28;19932;-61
2021/01/06 12:39:40;;;;;;;;;;;;;;;22.64;27.04;99724.41;5015214;28;19969;-61
2021/01/06 12:42:13;;;;;;;;;;;;;;;22.65;27.12;99714.94;5014689;28;19926;-60
2021/01/06 12:44:43;;;;;;;;;;;;;;;22.66;27.42;99713.81;5016714;28;19926;-61
2021/01/06 12:47:19;;;;;;;;;;;;;;;22.68;27.34;99719.88;4999710;28;19975;-60
2021/01/06 12:50:05;;;;;;;;;;;;;;;22.68;27.34;99713.50;4997189;28;20228;-61
2021/01/06 12:52:34;;;;;;;;;;;;;;;22.69;27.28;99718.75;5005554;28;19933;-62
2021/01/06 12:55:20;;;;;;;;;;;;;;;22.66;27.29;99719.38;5030548;28;20328;-65
2021/01/06 12:58:06;;;;;;;;;;;;;;;22.72;27.40;99715.38;5008128;28;20020;-60
2021/01/06 13:00:37;;;;;;;;;;;;;;;22.68;27.64;99717.09;4994544;28;19979;-59
2021/01/06 13:03:14;;;;;;;;;;;;;;;22.66;27.74;99719.38;5018591;28;20024;-60
2021/01/06 13:05:41;;;;;;;;;;;;;;;22.69;27.35;99715.16;4999921;28;19933;-60
2021/01/06 13:08:18;;;;;;;;;;;;;;;22.63;27.63;99717.19;5009852;28;19929;-61